createdAt,value
2019-02-23T00:02:20.479Z,100602.89
2019-02-23T00:04:48.782Z,100597.12
2019-02-23T00:07:17.100Z,100605.30
2019-02-23T00:09:45.405Z,100605.81
2019-02-23T00:12:13.818Z,100611.58
2019-02-23T00:14:42.521Z,100610.14
2019-02-23T00:17:10.819Z,100609.27
2019-02-23T00:19:39.135Z,100609.24
2019-02-23T00:22:07.437Z,100609.63
2019-02-23T00:24:35.750Z,100620.72
2019-02-23T00:27:04.059Z,100621.45
2019-02-23T00:29:32.347Z,100632.56
2019-02-23T00:32:00.983Z,100636.48
2019-02-23T00:34:29.280Z,100648.60
2019-02-23T00:36:57.607Z,100647.58
2019-02-23T00:39:26.184Z,100648.88
2019-02-23T00:41:54.484Z,100651.30
2019-02-23T00:44:22.808Z,100649.97
2019-02-23T00:46:51.109Z,100650.84
2019-02-23T00:49:19.443Z,100656.35
2019-02-23T00:51:48.040Z,100658.47
2019-02-23T00:54:16.371Z,100667.56
2019-02-23T00:56:45.011Z,100673.02
2019-02-23T00:59:13.312Z,100668.67
2019-02-23T01:01:41.795Z,100665.09
2019-02-23T01:04:10.097Z,100659.04
2019-02-23T01:06:38.400Z,100661.72
2019-02-23T01:09:06.709Z,100665.59
2019-02-23T01:11:35.007Z,100671.63
2019-02-23T01:14:03.388Z,100676.02
2019-02-23T01:16:31.685Z,100678.97
2019-02-23T01:19:00.025Z,100679.38
2019-02-23T01:21:28.323Z,100682.05
2019-02-23T01:23:56.624Z,100685.05
2019-02-23T01:26:24.937Z,100683.77
2019-02-23T01:28:53.244Z,100684.36
2019-02-23T01:31:21.576Z,100680.02
2019-02-23T01:33:50.224Z,100677.73
2019-02-23T01:36:18.592Z,100676.05
2019-02-23T01:38:46.911Z,100672.23
2019-02-23T01:41:15.204Z,100672.64
2019-02-23T01:43:43.535Z,100669.97
2019-02-23T01:46:11.833Z,100671.22
2019-02-23T01:48:40.134Z,100673.39
2019-02-23T01:51:08.451Z,100661.67
2019-02-23T01:53:36.759Z,100664.58
2019-02-23T01:56:05.553Z,100660.70
2019-02-23T01:58:33.852Z,100657.71
2019-02-23T02:01:02.153Z,100662.00
2019-02-23T02:03:30.477Z,100664.34
2019-02-23T02:05:59.252Z,100663.37
2019-02-23T02:08:27.655Z,100660.49
2019-02-23T02:10:56.323Z,100664.77
2019-02-23T02:13:25.041Z,100657.13
2019-02-23T02:15:53.727Z,100662.50
2019-02-23T02:18:22.194Z,100664.61
2019-02-23T02:20:50.520Z,100671.75
2019-02-23T02:23:18.817Z,100656.14
2019-02-23T02:25:47.173Z,100664.88
2019-02-23T02:28:15.496Z,100657.97
2019-02-23T02:30:43.801Z,100653.58
2019-02-23T02:33:12.134Z,100660.84
2019-02-23T02:35:40.442Z,100657.80
2019-02-23T02:38:08.748Z,100658.89
2019-02-23T02:40:37.071Z,100661.05
2019-02-23T02:43:05.439Z,100664.52
2019-02-23T02:45:34.108Z,100681.50
2019-02-23T02:48:02.620Z,100676.88
2019-02-23T02:50:31.283Z,100671.02
2019-02-23T02:52:59.675Z,100675.72
2019-02-23T02:55:27.980Z,100673.59
2019-02-23T02:57:56.400Z,100677.92
2019-02-23T03:00:24.696Z,100671.73
2019-02-23T03:02:53.024Z,100684.23
2019-02-23T03:05:21.468Z,100694.53
2019-02-23T03:07:49.808Z,100695.88
2019-02-23T03:10:18.191Z,100697.63
2019-02-23T03:12:46.923Z,100700.63
2019-02-23T03:15:15.247Z,100692.83
2019-02-23T03:17:43.886Z,100693.26
2019-02-23T03:20:12.216Z,100699.23
2019-02-23T03:22:40.551Z,100698.81
2019-02-23T03:25:08.914Z,100697.00
2019-02-23T03:27:37.226Z,100693.44
2019-02-23T03:30:08.502Z,100700.66
2019-02-23T03:32:36.805Z,100711.56
2019-02-23T03:35:05.672Z,100720.10
2019-02-23T03:37:34.063Z,100738.68
2019-02-23T03:40:02.619Z,100736.66
2019-02-23T03:42:30.955Z,100741.87
2019-02-23T03:44:59.570Z,100752.14
2019-02-23T03:47:27.961Z,100744.80
2019-02-23T03:49:56.290Z,100748.06
2019-02-23T03:52:24.595Z,100736.34
2019-02-23T03:54:52.934Z,100730.79
2019-02-23T03:57:21.240Z,100732.39
2019-02-23T03:59:49.544Z,100750.30
2019-02-23T04:02:18.251Z,100755.23
2019-02-23T04:04:46.549Z,100764.80
2019-02-23T04:07:14.874Z,100766.32
2019-02-23T04:09:43.494Z,100761.91
2019-02-23T04:12:11.802Z,100751.52
2019-02-23T04:14:40.124Z,100738.98
2019-02-23T04:17:08.503Z,100737.33
2019-02-23T04:19:36.842Z,100728.27
2019-02-23T04:22:05.146Z,100728.31
2019-02-23T04:24:33.475Z,100729.69
2019-02-23T04:27:01.789Z,100735.58
2019-02-23T04:29:30.172Z,100747.03
2019-02-23T04:31:58.505Z,100748.72
2019-02-23T04:34:26.826Z,100749.14
2019-02-23T04:36:55.158Z,100747.42
2019-02-23T04:39:23.469Z,100754.48
2019-02-23T04:41:51.799Z,100749.70
2019-02-23T04:44:20.106Z,100732.66
2019-02-23T04:46:49.221Z,100738.67
2019-02-23T04:49:17.551Z,100741.47
2019-02-23T04:51:45.857Z,100742.13
2019-02-23T04:54:14.190Z,100738.83
2019-02-23T04:56:42.499Z,100737.09
2019-02-23T04:59:10.911Z,100737.02
2019-02-23T05:01:39.221Z,100739.86
2019-02-23T05:04:07.530Z,100731.52
2019-02-23T05:06:35.853Z,100725.67
2019-02-23T05:09:05.312Z,100728.61
2019-02-23T05:11:33.638Z,100725.95
2019-02-23T05:14:01.974Z,100725.93
2019-02-23T05:16:30.290Z,100742.42
2019-02-23T05:18:58.750Z,100759.47
2019-02-23T05:21:27.143Z,100747.64
2019-02-23T05:23:55.468Z,100753.85
2019-02-23T05:26:23.779Z,100757.70
2019-02-23T05:28:52.420Z,100755.95
2019-02-23T05:31:22.253Z,100760.87
2019-02-23T05:33:50.750Z,100764.12
2019-02-23T05:36:19.073Z,100767.88
2019-02-23T05:38:47.443Z,100768.91
2019-02-23T05:41:15.766Z,100773.61
2019-02-23T05:43:44.077Z,100763.55
2019-02-23T05:46:12.484Z,100768.23
2019-02-23T05:48:40.790Z,100768.23
2019-02-23T05:51:09.101Z,100770.01
2019-02-23T05:53:37.433Z,100772.29
2019-02-23T05:56:05.756Z,100768.33
2019-02-23T05:58:34.080Z,100775.10
2019-02-23T06:01:03.372Z,100779.11
2019-02-23T06:03:31.698Z,100788.27
2019-02-23T06:06:01.272Z,100800.47
2019-02-23T06:08:29.511Z,100780.20
2019-02-23T06:10:58.191Z,100764.34
2019-02-23T06:13:26.525Z,100772.43
2019-02-23T06:15:54.838Z,100754.36
2019-02-23T06:18:23.142Z,100743.89
2019-02-23T06:20:51.544Z,100768.89
2019-02-23T06:23:19.855Z,100768.89
2019-02-23T06:25:48.174Z,100777.55
2019-02-23T06:28:16.478Z,100788.06
2019-02-23T06:30:44.810Z,100797.15
2019-02-23T06:33:13.118Z,100784.89
2019-02-23T06:35:41.511Z,100794.97
2019-02-23T06:38:09.818Z,100805.57
2019-02-23T06:40:38.130Z,100792.98
2019-02-23T06:43:06.457Z,100797.80
2019-02-23T06:45:34.774Z,100796.58
2019-02-23T06:48:03.396Z,100795.27
2019-02-23T06:50:31.995Z,100802.20
2019-02-23T06:53:00.298Z,100801.59
2019-02-23T06:55:28.627Z,100804.66
2019-02-23T06:57:56.929Z,100800.77
2019-02-23T07:00:25.276Z,100805.02
2019-02-23T07:02:53.589Z,100805.05
2019-02-23T07:05:21.902Z,100805.20
2019-02-23T07:07:50.218Z,100796.15
2019-02-23T07:10:18.530Z,100790.39
2019-02-23T07:12:46.856Z,100807.73
2019-02-23T07:15:15.378Z,100813.56
2019-02-23T07:17:43.679Z,100821.39
2019-02-23T07:20:12.552Z,100820.38
2019-02-23T07:22:41.142Z,100826.02
2019-02-23T07:25:10.439Z,100832.02
2019-02-23T07:27:38.746Z,100832.19
2019-02-23T07:30:10.351Z,100832.72
2019-02-23T07:32:38.662Z,100839.04
2019-02-23T07:35:08.077Z,100841.63
2019-02-23T07:37:36.392Z,100843.92
2019-02-23T07:40:08.093Z,100832.77
2019-02-23T07:42:36.444Z,100831.94
2019-02-23T07:45:06.794Z,100819.90
2019-02-23T07:47:35.101Z,100822.48
2019-02-23T07:50:03.855Z,100818.05
2019-02-23T07:52:32.163Z,100830.72
2019-02-23T07:55:00.491Z,100837.59
2019-02-23T07:57:28.806Z,100836.92
2019-02-23T07:59:57.101Z,100833.28
2019-02-23T08:02:25.935Z,100840.12
2019-02-23T08:04:54.302Z,100847.83
2019-02-23T08:07:22.638Z,100850.16
2019-02-23T08:09:50.938Z,100863.43
2019-02-23T08:12:19.231Z,100864.72
2019-02-23T08:14:47.542Z,100863.10
2019-02-23T08:17:15.844Z,100868.59
2019-02-23T08:19:44.183Z,100853.28
2019-02-23T08:22:12.560Z,100851.77
2019-02-23T08:24:40.865Z,100856.23
2019-02-23T08:27:09.189Z,100857.25
2019-02-23T08:29:37.489Z,100861.16
2019-02-23T08:32:06.176Z,100861.83
2019-02-23T08:34:34.869Z,100854.64
2019-02-23T08:37:03.364Z,100858.22
2019-02-23T08:39:31.660Z,100844.13
2019-02-23T08:41:59.986Z,100842.16
2019-02-23T08:44:28.597Z,100842.00
2019-02-23T08:46:56.891Z,100848.61
2019-02-23T08:49:25.232Z,100851.59
2019-02-23T08:51:53.529Z,100822.37
2019-02-23T08:54:21.860Z,100843.66
2019-02-23T08:56:50.435Z,100837.14
2019-02-23T08:59:19.011Z,100827.19
2019-02-23T09:01:47.329Z,100820.22
2019-02-23T09:04:15.954Z,100826.20
2019-02-23T09:06:44.273Z,100821.45
2019-02-23T09:09:12.634Z,100825.65
2019-02-23T09:11:40.868Z,100824.14
2019-02-23T09:14:09.187Z,100834.77
2019-02-23T09:16:37.488Z,100828.38
2019-02-23T09:19:05.821Z,100823.41
2019-02-23T09:21:34.117Z,100822.53
2019-02-23T09:24:02.549Z,100818.05
2019-02-23T09:26:31.194Z,100817.59
2019-02-23T09:28:59.495Z,100817.00
2019-02-23T09:31:27.808Z,100832.83
2019-02-23T09:33:56.433Z,100841.38
2019-02-23T09:36:24.753Z,100841.38
2019-02-23T09:38:53.118Z,100834.03
2019-02-23T09:41:21.449Z,100824.15
2019-02-23T09:43:49.746Z,100836.87
2019-02-23T09:46:18.042Z,100827.64
2019-02-23T09:48:46.353Z,100822.84
2019-02-23T09:51:14.647Z,100799.34
2019-02-23T09:53:43.038Z,100775.96
2019-02-23T09:56:11.351Z,100779.09
2019-02-23T09:58:40.103Z,100778.75
2019-02-23T10:01:08.735Z,100787.73
2019-02-23T10:03:37.025Z,100802.76
2019-02-23T10:06:05.414Z,100811.06
2019-02-23T10:08:33.706Z,100798.98
2019-02-23T10:11:02.025Z,100817.73
2019-02-23T10:13:30.773Z,100819.42
2019-02-23T10:15:59.092Z,100819.92
2019-02-23T10:18:27.405Z,100837.33
2019-02-23T10:20:55.695Z,100836.34
2019-02-23T10:23:24.005Z,100847.75
2019-02-23T10:25:52.302Z,100845.33
2019-02-23T10:28:20.631Z,100842.16
2019-02-23T10:30:49.318Z,100834.98
2019-02-23T10:33:17.617Z,100838.48
2019-02-23T10:35:45.935Z,100840.58
2019-02-23T10:38:14.242Z,100819.86
2019-02-23T10:40:42.584Z,100826.77
2019-02-23T10:43:11.227Z,100829.05
2019-02-23T10:45:39.527Z,100832.97
2019-02-23T10:48:07.835Z,100819.48
2019-02-23T10:50:36.198Z,100825.13
2019-02-23T10:53:04.577Z,100828.58
2019-02-23T10:55:32.886Z,100829.91
2019-02-23T10:58:01.222Z,100832.09
2019-02-23T11:00:30.513Z,100823.87
2019-02-23T11:02:58.872Z,100810.86
2019-02-23T11:05:27.187Z,100802.21
2019-02-23T11:07:55.978Z,100799.57
2019-02-23T11:10:24.442Z,100791.66
2019-02-23T11:12:52.807Z,100796.84
2019-02-23T11:15:22.102Z,100787.17
2019-02-23T11:17:50.469Z,100777.96
2019-02-23T11:20:19.151Z,100786.27
2019-02-23T11:22:47.483Z,100795.72
2019-02-23T11:25:16.173Z,100788.05
2019-02-23T11:27:44.488Z,100784.08
2019-02-23T11:30:15.391Z,100782.81
2019-02-23T11:32:43.744Z,100775.03
2019-02-23T11:35:17.305Z,100763.73
2019-02-23T11:37:46.224Z,100754.08
2019-02-23T11:40:15.671Z,100748.80
2019-02-23T11:42:44.369Z,100734.06
2019-02-23T11:45:12.815Z,100730.19
2019-02-23T11:47:41.535Z,100732.08
2019-02-23T11:50:11.701Z,100715.56
2019-02-23T11:52:40.072Z,100719.50
2019-02-23T11:55:08.509Z,100723.97
2019-02-23T11:57:36.889Z,100726.53
2019-02-23T12:00:10.446Z,100722.91
2019-02-23T12:02:38.822Z,100717.78
2019-02-23T12:05:08.356Z,100698.90
2019-02-23T12:07:36.696Z,100697.39
2019-02-23T12:10:08.169Z,100689.66
2019-02-23T12:12:36.468Z,100683.34
2019-02-23T12:15:05.943Z,100689.83
2019-02-23T12:17:34.236Z,100689.14
2019-02-23T12:20:02.889Z,100696.70
2019-02-23T12:22:31.191Z,100699.84
2019-02-23T12:24:59.507Z,100688.80
2019-02-23T12:27:27.869Z,100687.00
2019-02-23T12:29:56.125Z,100687.84
2019-02-23T12:32:24.797Z,100688.20
2019-02-23T12:34:53.132Z,100691.72
2019-02-23T12:37:21.422Z,100689.19
2019-02-23T12:39:49.732Z,100671.52
2019-02-23T12:42:18.117Z,100671.13
2019-02-23T12:44:46.428Z,100669.84
2019-02-23T12:47:14.832Z,100668.38
2019-02-23T12:49:43.130Z,100661.27
2019-02-23T12:52:11.503Z,100659.53
2019-02-23T12:54:39.823Z,100659.06
2019-02-23T12:57:08.119Z,100657.29
2019-02-23T12:59:36.452Z,100657.66
2019-02-23T13:02:04.821Z,100664.17
2019-02-23T13:04:33.124Z,100652.86
2019-02-23T13:07:01.444Z,100651.55
2019-02-23T13:09:32.489Z,100634.57
2019-02-23T13:12:21.775Z,100634.91
2019-02-23T13:14:56.263Z,100634.53
2019-02-23T13:17:42.991Z,100638.52
2019-02-23T13:20:26.075Z,100624.72
2019-02-23T13:23:09.603Z,100630.14
2019-02-23T13:25:50.025Z,100621.04
2019-02-23T13:28:39.473Z,100629.29
2019-02-23T13:31:16.508Z,100628.77
2019-02-23T13:34:17.602Z,100628.98
2019-02-23T13:37:05.475Z,100622.29
2019-02-23T13:39:37.036Z,100612.16
2019-02-23T13:42:23.354Z,100616.75
2019-02-23T13:45:06.591Z,100606.10
2019-02-23T13:48:00.560Z,100604.97
2019-02-23T13:50:46.971Z,100604.23
2019-02-23T13:53:36.711Z,100587.46
2019-02-23T13:56:11.026Z,100589.52
2019-02-23T13:58:42.499Z,100589.64
2019-02-23T14:01:31.554Z,100582.12
2019-02-23T14:04:47.837Z,100582.45
2019-02-23T14:07:28.055Z,100569.19
2019-02-23T14:10:29.282Z,100563.70
2019-02-23T14:13:04.401Z,100561.52
2019-02-23T14:15:57.080Z,100547.95
2019-02-23T14:18:37.669Z,100561.86
2019-02-23T14:21:09.146Z,100552.00
2019-02-23T14:23:46.679Z,100543.05
2019-02-23T14:26:45.446Z,100543.72
2019-02-23T14:29:31.505Z,100550.60
2019-02-23T14:32:06.008Z,100555.98
2019-02-23T14:34:43.908Z,100558.03
2019-02-23T14:37:30.200Z,100546.56
2019-02-23T14:40:13.855Z,100543.05
2019-02-23T14:42:54.427Z,100545.78
2019-02-23T14:45:48.421Z,100551.14
2019-02-23T14:48:36.082Z,100554.40
2019-02-23T14:51:13.419Z,100555.31
2019-02-23T14:54:04.505Z,100554.70
2019-02-23T14:56:58.470Z,100547.80
2019-02-23T14:59:41.988Z,100538.65
2019-02-23T15:02:25.182Z,100539.20
2019-02-23T15:05:17.910Z,100526.73
2019-02-23T15:08:05.814Z,100526.28
2019-02-23T15:11:12.883Z,100527.03
2019-02-23T15:14:01.308Z,100516.80
2019-02-23T15:16:32.787Z,100520.27
2019-02-23T15:19:07.127Z,100514.69
2019-02-23T15:21:47.403Z,100513.48
2019-02-23T15:24:30.478Z,100508.87
2019-02-23T15:27:20.391Z,100512.48
2019-02-23T15:29:54.856Z,100507.95
2019-02-23T15:33:01.280Z,100508.05
2019-02-23T15:35:52.381Z,100506.95
2019-02-23T15:38:42.351Z,100509.02
2019-02-23T15:41:39.349Z,100518.75
2019-02-23T15:44:31.292Z,100519.81
2019-02-23T15:47:23.622Z,100516.09
2019-02-23T15:49:51.907Z,100514.97
2019-02-23T15:52:20.232Z,100518.41
2019-02-23T15:54:48.511Z,100516.02
2019-02-23T15:57:16.807Z,100513.59
2019-02-23T15:59:45.133Z,100511.70
2019-02-23T16:02:13.431Z,100510.20
2019-02-23T16:04:41.832Z,100520.74
2019-02-23T16:07:10.132Z,100517.61
2019-02-23T16:09:38.438Z,100518.25
2019-02-23T16:12:06.819Z,100523.31
2019-02-23T16:14:35.114Z,100518.79
2019-02-23T16:17:03.500Z,100521.95
2019-02-23T16:19:31.823Z,100522.84
2019-02-23T16:22:00.209Z,100518.97
2019-02-23T16:24:28.511Z,100535.08
2019-02-23T16:26:56.845Z,100533.23
2019-02-23T16:29:25.137Z,100515.39
2019-02-23T16:31:53.500Z,100532.61
2019-02-23T16:34:22.135Z,100529.13
2019-02-23T16:36:50.438Z,100534.47
2019-02-23T16:39:18.783Z,100530.94
2019-02-23T16:41:47.052Z,100533.11
2019-02-23T16:44:15.345Z,100537.09
2019-02-23T16:46:46.389Z,100543.62
2019-02-23T16:49:14.029Z,100554.52
2019-02-23T16:51:42.341Z,100554.05
2019-02-23T16:54:11.956Z,100547.17
2019-02-23T16:56:40.275Z,100552.78
2019-02-23T16:59:08.566Z,100557.98
2019-02-23T17:01:36.862Z,100561.02
2019-02-23T17:04:05.177Z,100555.83
2019-02-23T17:06:33.477Z,100554.08
2019-02-23T17:09:01.792Z,100570.06
2019-02-23T17:11:30.082Z,100575.24
2019-02-23T17:13:58.378Z,100576.56
2019-02-23T17:16:26.698Z,100583.45
2019-02-23T17:18:54.999Z,100579.56
2019-02-23T17:21:23.389Z,100581.73
2019-02-23T17:23:51.685Z,100579.95
2019-02-23T17:26:20.232Z,100577.34
2019-02-23T17:28:48.542Z,100566.05
2019-02-23T17:31:16.842Z,100573.81
2019-02-23T17:33:45.150Z,100571.27
2019-02-23T17:36:13.452Z,100572.95
2019-02-23T17:38:44.713Z,100567.77
2019-02-23T17:41:11.796Z,100575.53
2019-02-23T17:43:40.299Z,100586.80
2019-02-23T17:46:08.886Z,100584.62
2019-02-23T17:48:37.246Z,100585.04
2019-02-23T17:51:05.569Z,100588.85
2019-02-23T17:53:33.862Z,100593.63
2019-02-23T17:56:02.161Z,100600.98
2019-02-23T17:58:31.321Z,100597.48
2019-02-23T18:01:00.106Z,100597.91
2019-02-23T18:03:28.418Z,100605.18
2019-02-23T18:05:56.717Z,100611.19
2019-02-23T18:08:25.045Z,100602.56
2019-02-23T18:10:53.345Z,100602.64
2019-02-23T18:13:21.712Z,100603.42
2019-02-23T18:15:50.021Z,100598.19
2019-02-23T18:18:18.672Z,100593.04
2019-02-23T18:20:48.261Z,100589.45
2019-02-23T18:23:16.854Z,100587.34
2019-02-23T18:25:45.457Z,100593.83
2019-02-23T18:28:13.850Z,100593.38
2019-02-23T18:30:42.154Z,100592.94
2019-02-23T18:33:10.481Z,100588.14
2019-02-23T18:35:39.082Z,100590.22
2019-02-23T18:38:07.379Z,100594.44
2019-02-23T18:40:35.695Z,100597.56
2019-02-23T18:43:03.995Z,100600.97
2019-02-23T18:45:32.313Z,100604.84
2019-02-23T18:48:00.628Z,100607.88
2019-02-23T18:50:30.003Z,100605.75
2019-02-23T18:52:58.295Z,100598.22
2019-02-23T18:55:26.632Z,100611.24
2019-02-23T18:57:54.928Z,100612.88
2019-02-23T19:00:24.634Z,100597.52
2019-02-23T19:02:53.023Z,100600.46
2019-02-23T19:05:21.316Z,100600.92
2019-02-23T19:07:50.000Z,100596.13
2019-02-23T19:10:18.583Z,100594.50
2019-02-23T19:12:46.896Z,100594.49
2019-02-23T19:15:15.192Z,100584.41
2019-02-23T19:17:43.534Z,100592.25
2019-02-23T19:20:15.153Z,100579.66
2019-02-23T19:22:43.454Z,100573.51
2019-02-23T19:25:12.136Z,100582.59
2019-02-23T19:27:40.442Z,100591.55
2019-02-23T19:30:11.932Z,100584.67
2019-02-23T19:32:40.303Z,100588.36
2019-02-23T19:35:09.147Z,100596.19
2019-02-23T19:37:37.525Z,100597.93
2019-02-23T19:40:08.459Z,100603.07
2019-02-23T19:42:37.168Z,100603.00
2019-02-23T19:45:08.909Z,100612.12
2019-02-23T19:47:37.972Z,100605.14
2019-02-23T19:50:15.143Z,100605.63
2019-02-23T19:52:43.598Z,100613.77
2019-02-23T19:55:14.732Z,100611.22
2019-02-23T19:57:43.073Z,100620.13
2019-02-23T20:00:11.443Z,100622.91
2019-02-23T20:02:39.911Z,100588.29
2019-02-23T20:05:09.865Z,100620.33
2019-02-23T20:07:38.156Z,100599.27
2019-02-23T20:10:09.883Z,100605.52
2019-02-23T20:12:38.880Z,100601.55
2019-02-23T20:15:09.844Z,100600.56
2019-02-23T20:17:38.142Z,100606.98
2019-02-23T20:20:07.584Z,100611.84
2019-02-23T20:22:35.905Z,100606.64
2019-02-23T20:25:05.458Z,100618.58
2019-02-23T20:27:33.774Z,100610.94
2019-02-23T20:30:02.430Z,100619.45
2019-02-23T20:32:31.377Z,100617.70
2019-02-23T20:34:59.672Z,100623.59
2019-02-23T20:37:27.975Z,100623.13
2019-02-23T20:39:56.301Z,100619.30
2019-02-23T20:42:24.607Z,100632.72
2019-02-23T20:44:52.928Z,100627.84
2019-02-23T20:47:21.231Z,100623.05
2019-02-23T20:49:50.382Z,100619.30
2019-02-23T20:52:18.989Z,100621.13
2019-02-23T20:54:47.321Z,100621.39
2019-02-23T20:57:15.622Z,100619.14
2019-02-23T20:59:44.483Z,100610.22
2019-02-23T21:02:12.803Z,100604.97
2019-02-23T21:04:41.098Z,100595.25
2019-02-23T21:07:09.410Z,100587.15
2019-02-23T21:09:38.181Z,100577.23
2019-02-23T21:12:06.584Z,100578.63
2019-02-23T21:14:34.891Z,100580.99
2019-02-23T21:17:03.195Z,100597.38
2019-02-23T21:19:31.519Z,100587.00
2019-02-23T21:21:59.818Z,100591.17
2019-02-23T21:24:28.135Z,100601.33
2019-02-23T21:26:56.747Z,100603.60
2019-02-23T21:29:25.093Z,100592.84
2019-02-23T21:31:53.399Z,100603.30
2019-02-23T21:34:21.991Z,100596.00
2019-02-23T21:36:50.680Z,100589.52
2019-02-23T21:39:19.048Z,100583.55
2019-02-23T21:41:48.102Z,100585.09
2019-02-23T21:44:16.394Z,100589.63
2019-02-23T21:46:44.759Z,100577.95
2019-02-23T21:49:13.079Z,100578.10
2019-02-23T21:51:41.383Z,100580.84
2019-02-23T21:54:10.853Z,100583.92
2019-02-23T21:56:40.006Z,100584.00
2019-02-23T21:59:08.300Z,100594.38
2019-02-23T22:01:36.607Z,100587.18
2019-02-23T22:04:05.237Z,100570.65
2019-02-23T22:06:33.609Z,100577.09
2019-02-23T22:09:01.922Z,100568.06
2019-02-23T22:11:30.255Z,100564.61
2019-02-23T22:13:58.534Z,100563.77
2019-02-23T22:16:26.861Z,100574.89
2019-02-23T22:18:55.149Z,100573.64
2019-02-23T22:21:23.467Z,100565.31
2019-02-23T22:23:51.756Z,100567.65
2019-02-23T22:26:20.146Z,100562.69
2019-02-23T22:28:48.458Z,100561.86
2019-02-23T22:31:16.747Z,100561.48
2019-02-23T22:33:45.070Z,100552.45
2019-02-23T22:36:13.684Z,100553.56
2019-02-23T22:38:42.000Z,100556.06
2019-02-23T22:41:10.358Z,100561.77
2019-02-23T22:43:38.679Z,100558.69
2019-02-23T22:46:06.984Z,100564.57
2019-02-23T22:48:35.304Z,100563.56
2019-02-23T22:51:03.602Z,100560.23
2019-02-23T22:53:31.925Z,100560.10
2019-02-23T22:56:00.536Z,100559.77
2019-02-23T22:58:28.830Z,100552.73
2019-02-23T23:00:58.932Z,100556.09
2019-02-23T23:03:27.221Z,100557.44
2019-02-23T23:05:55.604Z,100550.70
2019-02-23T23:08:23.906Z,100554.73
2019-02-23T23:10:52.243Z,100543.66
2019-02-23T23:13:20.536Z,100545.73
2019-02-23T23:15:48.850Z,100549.37
2019-02-23T23:18:17.155Z,100533.95
2019-02-23T23:20:45.779Z,100535.58
2019-02-23T23:23:14.090Z,100535.82
2019-02-23T23:25:42.460Z,100531.92
2019-02-23T23:28:10.785Z,100532.69
2019-02-23T23:30:39.088Z,100531.30
2019-02-23T23:33:07.406Z,100533.86
2019-02-23T23:35:35.774Z,100534.44
2019-02-23T23:38:04.349Z,100534.55
2019-02-23T23:40:32.656Z,100535.78
2019-02-23T23:43:00.960Z,100536.44
2019-02-23T23:45:29.272Z,100526.89
2019-02-23T23:47:57.574Z,100533.53
2019-02-23T23:50:25.901Z,100535.41
2019-02-23T23:52:54.194Z,100544.54
2019-02-23T23:55:22.599Z,100541.82
2019-02-23T23:57:58.100Z,100535.05
